ESMK

Kristianstad Airport

Kristianstad, Sweden
METAR ESMK 152020Z AUTO 30007KT 9999 ////// 20/14 Q1015
Observed Flight Rules
Jul-15 @ 20:20 UTC (36 minutes ago)
Wind Visibility
300° at 7 knots 10,000+ meters
Temperatures Readings
Current 20°C / 68°F
Dewpoint 14°C / 57°F
Humidity 69%
Altimeter 29.97" Hg
Pressure 1015 hPa
Elevation 23
METAR ESMK 152020Z AUTO 30007KT 9999 ////// 20/14 Q1015
Observed Flight Rules
Jul-15 @ 20:20 UTC
(36 minutes ago)
Wind Visibility
300° at 7 knots 10,000+ meters
Temperature Dewpoint
20°C / 68°F 14°C / 57°F
Humidity Altimeter Pressure
69% 29.97" Hg 1015 hPa